createdAt,value
2022-09-04T00:00:12.474Z,68.69
2022-09-04T00:02:48.339Z,69.06
2022-09-04T00:05:24.008Z,68.79
2022-09-04T00:08:29.558Z,69.13
2022-09-04T00:11:29.377Z,69.05
2022-09-04T00:14:14.583Z,69.57
2022-09-04T00:16:51.086Z,69.31
2022-09-04T00:19:41.277Z,69.49
2022-09-04T00:22:52.551Z,69.61
2022-09-04T00:25:47.407Z,69.45
2022-09-04T00:28:37.044Z,69.63
2022-09-04T00:31:13.241Z,69.73
2022-09-04T00:33:54.855Z,70.21
2022-09-04T00:36:24.144Z,70.27
2022-09-04T00:39:03.227Z,70.54
2022-09-04T00:41:37.713Z,70.53
2022-09-04T00:44:32.324Z,70.90
2022-09-04T00:47:28.036Z,70.66
2022-09-04T00:50:07.700Z,70.36
2022-09-04T00:52:40.809Z,70.37
2022-09-04T00:55:29.326Z,70.58
2022-09-04T00:57:59.494Z,70.09
2022-09-04T01:00:28.021Z,70.56
2022-09-04T01:03:44.437Z,70.76
2022-09-04T01:06:29.510Z,70.36
2022-09-04T01:09:25.165Z,70.73
2022-09-04T01:12:26.548Z,70.96
2022-09-04T01:15:19.707Z,70.80
2022-09-04T01:18:08.090Z,71.17
2022-09-04T01:20:56.433Z,71.24
2022-09-04T01:23:41.172Z,71.22
2022-09-04T01:26:13.953Z,70.78
2022-09-04T01:28:53.059Z,71.14
2022-09-04T01:31:44.640Z,71.12
2022-09-04T01:34:28.180Z,71.18
2022-09-04T01:37:05.180Z,71.04
2022-09-04T01:39:35.833Z,71.03
2022-09-04T01:42:14.712Z,71.27
2022-09-04T01:44:42.602Z,71.57
2022-09-04T01:47:17.958Z,71.41
2022-09-04T01:49:57.532Z,71.29
2022-09-04T01:52:45.986Z,71.30
2022-09-04T01:55:32.811Z,71.45
2022-09-04T01:58:17.655Z,71.35
2022-09-04T02:01:03.646Z,71.35
2022-09-04T02:03:54.186Z,71.26
2022-09-04T02:06:22.184Z,71.57
2022-09-04T02:09:11.654Z,71.76
2022-09-04T02:11:48.988Z,71.84
2022-09-04T02:14:40.827Z,72.23
2022-09-04T02:17:47.700Z,71.63
2022-09-04T02:20:28.016Z,71.71
2022-09-04T02:23:00.025Z,72.13
2022-09-04T02:25:45.190Z,72.37
2022-09-04T02:28:27.196Z,72.59
2022-09-04T02:31:13.044Z,72.59
2022-09-04T02:33:49.458Z,72.78
2022-09-04T02:36:23.406Z,73.25
2022-09-04T02:39:02.719Z,73.47
2022-09-04T02:41:34.983Z,73.45
2022-09-04T02:44:27.461Z,73.49
2022-09-04T02:47:12.401Z,73.11
2022-09-04T02:49:58.297Z,73.49
2022-09-04T02:53:03.359Z,73.46
2022-09-04T02:55:55.193Z,73.51
2022-09-04T02:58:44.185Z,73.36
2022-09-04T03:01:23.324Z,72.94
2022-09-04T03:04:08.808Z,73.22
2022-09-04T03:06:48.828Z,73.12
2022-09-04T03:09:23.770Z,73.15
2022-09-04T03:12:06.345Z,73.36
2022-09-04T03:14:43.317Z,73.51
2022-09-04T03:17:23.690Z,73.85
2022-09-04T03:20:02.698Z,73.84
2022-09-04T03:22:40.850Z,74.04
2022-09-04T03:25:11.042Z,74.15
2022-09-04T03:27:38.134Z,74.26
2022-09-04T03:30:09.590Z,74.23
2022-09-04T03:32:58.527Z,74.51
2022-09-04T03:35:32.039Z,74.55
2022-09-04T03:38:33.009Z,74.80
2022-09-04T03:41:18.224Z,74.90
2022-09-04T03:44:00.866Z,74.65
2022-09-04T03:46:33.363Z,74.69
2022-09-04T03:49:19.144Z,74.63
2022-09-04T03:52:05.640Z,74.60
2022-09-04T03:54:51.062Z,74.43
2022-09-04T03:57:49.375Z,74.40
2022-09-04T04:00:21.671Z,74.39
2022-09-04T04:03:19.791Z,74.37
2022-09-04T04:06:16.044Z,74.22
2022-09-04T04:09:19.298Z,74.03
2022-09-04T04:12:03.832Z,74.11
2022-09-04T04:14:42.105Z,74.08
2022-09-04T04:17:27.758Z,74.23
2022-09-04T04:20:16.818Z,74.00
2022-09-04T04:23:17.855Z,73.93
2022-09-04T04:26:14.145Z,73.81
2022-09-04T04:29:26.785Z,73.80
2022-09-04T04:32:13.381Z,73.82
2022-09-04T04:35:18.104Z,73.96
2022-09-04T04:38:07.767Z,73.87
2022-09-04T04:40:45.347Z,73.76
2022-09-04T04:43:50.358Z,73.66
2022-09-04T04:46:35.324Z,73.39
2022-09-04T04:49:30.653Z,72.93
2022-09-04T04:52:28.779Z,72.58
2022-09-04T04:55:31.391Z,71.67
2022-09-04T04:58:01.136Z,71.49
2022-09-04T05:00:32.210Z,71.54
2022-09-04T05:03:35.418Z,71.21
2022-09-04T05:06:15.937Z,71.24
2022-09-04T05:08:49.402Z,69.81
2022-09-04T05:11:25.446Z,68.40
2022-09-04T05:14:06.843Z,68.28
2022-09-04T05:16:58.414Z,67.94
2022-09-04T05:19:29.511Z,68.12
2022-09-04T05:22:21.035Z,67.79
2022-09-04T05:25:00.234Z,67.59
2022-09-04T05:28:04.527Z,66.52
2022-09-04T05:30:47.698Z,66.31
2022-09-04T05:33:33.977Z,65.77
2022-09-04T05:36:21.182Z,65.24
2022-09-04T05:38:57.315Z,64.46
2022-09-04T05:41:29.855Z,64.31
2022-09-04T05:44:32.108Z,64.32
2022-09-04T05:47:20.784Z,64.44
2022-09-04T05:49:50.925Z,64.05
2022-09-04T05:52:29.987Z,63.66
2022-09-04T05:55:32.169Z,63.72
2022-09-04T05:58:25.976Z,63.74
2022-09-04T06:01:08.415Z,63.40
2022-09-04T06:03:47.456Z,62.76
2022-09-04T06:06:22.872Z,62.82
2022-09-04T06:09:02.058Z,60.06
2022-09-04T06:11:48.580Z,59.71
2022-09-04T06:14:24.484Z,58.48
2022-09-04T06:17:25.716Z,58.07
2022-09-04T06:20:10.274Z,57.62
2022-09-04T06:23:02.963Z,57.69
2022-09-04T06:25:39.312Z,57.17
2022-09-04T06:28:09.405Z,54.60
2022-09-04T06:31:29.459Z,53.50
2022-09-04T06:34:22.411Z,54.00
2022-09-04T06:37:03.079Z,54.17
2022-09-04T06:39:48.645Z,53.13
2022-09-04T06:42:41.157Z,52.84
2022-09-04T06:45:23.770Z,53.47
2022-09-04T06:48:22.556Z,52.40
2022-09-04T06:51:15.899Z,53.12
2022-09-04T06:53:50.633Z,52.99
2022-09-04T06:56:37.522Z,53.28
2022-09-04T06:59:24.467Z,53.17
2022-09-04T07:02:29.097Z,52.27
2022-09-04T07:05:10.010Z,52.80
2022-09-04T07:07:59.926Z,52.51
2022-09-04T07:10:34.509Z,51.84
2022-09-04T07:13:23.596Z,50.56
2022-09-04T07:15:57.027Z,50.99
2022-09-04T07:18:52.005Z,50.22
2022-09-04T07:21:31.024Z,50.78
2022-09-04T07:24:03.704Z,49.58
2022-09-04T07:26:42.718Z,48.58
2022-09-04T07:29:30.905Z,48.62
2022-09-04T07:32:15.543Z,48.25
2022-09-04T07:35:00.862Z,48.90
2022-09-04T07:37:47.178Z,48.20
2022-09-04T07:40:23.180Z,47.69
2022-09-04T07:43:08.154Z,46.33
2022-09-04T07:45:39.228Z,47.22
2022-09-04T07:48:17.734Z,46.38
2022-09-04T07:51:04.683Z,45.99
2022-09-04T07:53:56.622Z,46.12
2022-09-04T07:56:35.436Z,45.73
2022-09-04T07:59:36.120Z,45.67
2022-09-04T08:02:19.266Z,45.50
2022-09-04T08:05:27.242Z,45.29
2022-09-04T08:08:12.046Z,45.42
2022-09-04T08:11:10.039Z,45.14
2022-09-04T08:14:10.053Z,45.70
2022-09-04T08:17:24.493Z,45.57
2022-09-04T08:20:02.321Z,45.23
2022-09-04T08:22:40.224Z,42.67
2022-09-04T08:25:20.351Z,42.38
2022-09-04T08:28:17.660Z,41.67
2022-09-04T08:30:56.540Z,41.35
2022-09-04T08:33:23.503Z,42.27
2022-09-04T08:36:03.147Z,41.55
2022-09-04T08:38:42.425Z,42.10
2022-09-04T08:41:31.043Z,41.56
2022-09-04T08:44:27.009Z,42.24
2022-09-04T08:47:12.617Z,41.53
2022-09-04T08:50:07.801Z,41.62
2022-09-04T08:53:04.037Z,41.52
2022-09-04T08:55:43.215Z,41.03
2022-09-04T08:58:34.711Z,40.11
2022-09-04T09:01:18.966Z,41.17
2022-09-04T09:03:48.735Z,42.33
2022-09-04T09:06:28.037Z,39.70
2022-09-04T09:09:27.790Z,39.71
2022-09-04T09:12:26.262Z,40.05
2022-09-04T09:15:07.519Z,39.93
2022-09-04T09:17:39.986Z,39.20
2022-09-04T09:20:29.780Z,39.49
2022-09-04T09:23:26.250Z,39.03
2022-09-04T09:26:13.834Z,39.75
2022-09-04T09:29:02.138Z,38.77
2022-09-04T09:31:43.046Z,39.27
2022-09-04T09:34:25.737Z,39.03
2022-09-04T09:37:02.594Z,38.78
2022-09-04T09:39:42.963Z,38.34
2022-09-04T09:42:40.739Z,37.89
2022-09-04T09:45:13.812Z,38.06
2022-09-04T09:48:10.972Z,37.24
2022-09-04T09:51:06.296Z,37.58
2022-09-04T09:53:46.886Z,39.01
2022-09-04T09:56:36.046Z,38.50
2022-09-04T09:59:41.383Z,38.61
2022-09-04T10:02:17.746Z,38.28
2022-09-04T10:05:13.701Z,37.89
2022-09-04T10:07:43.433Z,38.42
2022-09-04T10:10:32.688Z,39.12
2022-09-04T10:13:15.229Z,38.93
2022-09-04T10:16:12.819Z,38.45
2022-09-04T10:19:04.765Z,38.98
2022-09-04T10:21:50.340Z,39.37
2022-09-04T10:24:55.601Z,40.23
2022-09-04T10:27:29.326Z,40.26
2022-09-04T10:30:14.209Z,40.16
2022-09-04T10:33:11.518Z,40.16
2022-09-04T10:35:58.253Z,39.67
2022-09-04T10:38:28.003Z,39.37
2022-09-04T10:41:19.747Z,39.57
2022-09-04T10:43:52.823Z,39.64
2022-09-04T10:46:29.937Z,40.12
2022-09-04T10:49:28.144Z,38.75
2022-09-04T10:52:06.996Z,39.11
2022-09-04T10:54:58.244Z,37.92
2022-09-04T10:57:43.216Z,37.34
2022-09-04T11:00:17.876Z,37.84
2022-09-04T11:03:21.257Z,37.19
2022-09-04T11:06:26.338Z,37.14
2022-09-04T11:09:06.011Z,37.95
2022-09-04T11:12:06.423Z,37.16
2022-09-04T11:14:55.167Z,37.58
2022-09-04T11:17:30.494Z,37.28
2022-09-04T11:20:30.114Z,37.26
2022-09-04T11:23:15.513Z,37.16
2022-09-04T11:26:24.017Z,36.66
2022-09-04T11:29:17.093Z,35.67
2022-09-04T11:32:11.979Z,35.26
2022-09-04T11:35:13.717Z,35.84
2022-09-04T11:37:59.906Z,36.14
2022-09-04T11:40:37.930Z,36.21
2022-09-04T11:43:10.764Z,35.88
2022-09-04T11:45:51.483Z,35.73
2022-09-04T11:48:41.149Z,36.37
2022-09-04T11:51:23.309Z,36.41
2022-09-04T11:54:02.147Z,35.59
2022-09-04T11:57:04.507Z,36.26
2022-09-04T12:00:01.646Z,36.56
2022-09-04T12:02:50.808Z,36.93
2022-09-04T12:05:45.668Z,36.03
2022-09-04T12:08:57.019Z,36.20
2022-09-04T12:11:39.237Z,36.25
2022-09-04T12:14:30.688Z,35.97
2022-09-04T12:17:08.491Z,36.43
2022-09-04T12:19:56.163Z,36.69
2022-09-04T12:22:44.435Z,36.08
2022-09-04T12:25:38.657Z,35.78
2022-09-04T12:28:24.138Z,35.60
2022-09-04T12:31:07.878Z,35.48
2022-09-04T12:33:47.120Z,34.59
2022-09-04T12:36:38.316Z,34.33
2022-09-04T12:39:26.200Z,34.22
2022-09-04T12:42:11.375Z,33.60
2022-09-04T12:44:47.276Z,34.36
2022-09-04T12:47:45.941Z,34.41
2022-09-04T12:50:28.196Z,34.73
2022-09-04T12:52:55.035Z,34.65
2022-09-04T12:55:58.801Z,35.07
2022-09-04T12:58:37.671Z,35.35
2022-09-04T13:01:20.357Z,34.51
2022-09-04T13:03:51.215Z,34.15
2022-09-04T13:06:35.050Z,33.49
2022-09-04T13:09:23.801Z,34.23
2022-09-04T13:11:56.199Z,33.79
2022-09-04T13:14:47.249Z,34.09
2022-09-04T13:17:14.264Z,34.65
2022-09-04T13:19:47.636Z,33.97
2022-09-04T13:22:32.167Z,34.22
2022-09-04T13:25:04.885Z,34.20
2022-09-04T13:27:43.535Z,34.72
2022-09-04T13:30:25.494Z,35.03
2022-09-04T13:33:19.784Z,34.88
2022-09-04T13:36:00.903Z,34.95
2022-09-04T13:38:50.659Z,34.67
2022-09-04T13:41:30.156Z,34.85
2022-09-04T13:44:07.307Z,34.59
2022-09-04T13:46:49.275Z,34.01
2022-09-04T13:49:25.099Z,34.17
2022-09-04T13:51:59.511Z,33.87
2022-09-04T13:54:34.044Z,33.65
2022-09-04T13:57:00.712Z,34.35
2022-09-04T13:59:28.687Z,34.68
2022-09-04T14:02:00.001Z,34.59
2022-09-04T14:04:34.345Z,34.72
2022-09-04T14:07:07.989Z,35.36
2022-09-04T14:09:42.885Z,35.24
2022-09-04T14:12:42.868Z,35.12
2022-09-04T14:15:27.107Z,35.44
2022-09-04T14:18:04.411Z,35.68
2022-09-04T14:20:42.381Z,35.67
2022-09-04T14:23:56.225Z,35.75
2022-09-04T14:26:55.586Z,36.24
2022-09-04T14:29:41.768Z,36.21
2022-09-04T14:32:12.861Z,36.07
2022-09-04T14:34:50.924Z,36.37
2022-09-04T14:37:30.230Z,35.81
2022-09-04T14:40:25.752Z,36.27
2022-09-04T14:43:28.473Z,36.56
2022-09-04T14:46:09.721Z,36.30
2022-09-04T14:48:41.952Z,36.29
2022-09-04T14:51:37.598Z,36.22
2022-09-04T14:54:06.665Z,35.97
2022-09-04T14:56:49.524Z,35.57
2022-09-04T14:59:24.587Z,35.92
2022-09-04T15:02:10.504Z,34.89
2022-09-04T15:05:01.440Z,35.42
2022-09-04T15:07:42.141Z,35.45
2022-09-04T15:10:28.735Z,35.73
2022-09-04T15:13:24.062Z,36.15
2022-09-04T15:16:02.403Z,36.07
2022-09-04T15:18:43.146Z,36.20
2022-09-04T15:21:21.242Z,36.13
2022-09-04T15:24:16.336Z,36.15
2022-09-04T15:27:05.752Z,36.05
2022-09-04T15:29:51.419Z,35.67
2022-09-04T15:32:26.111Z,35.82
2022-09-04T15:35:14.101Z,35.65
2022-09-04T15:37:48.310Z,35.88
2022-09-04T15:40:29.053Z,35.44
2022-09-04T15:43:04.454Z,35.20
2022-09-04T15:45:53.165Z,34.90
2022-09-04T15:48:33.973Z,34.90
2022-09-04T15:51:19.621Z,34.63
2022-09-04T15:54:15.424Z,35.03
2022-09-04T15:56:51.105Z,35.28
2022-09-04T15:59:44.248Z,35.35
2022-09-04T16:02:37.260Z,35.70
2022-09-04T16:05:25.133Z,35.65
2022-09-04T16:08:03.076Z,35.82
2022-09-04T16:10:42.766Z,36.09
2022-09-04T16:13:34.745Z,35.97
2022-09-04T16:16:27.926Z,36.27
2022-09-04T16:19:12.157Z,36.76
2022-09-04T16:22:10.746Z,36.72
2022-09-04T16:24:54.112Z,37.08
2022-09-04T16:27:25.911Z,36.86
2022-09-04T16:30:03.014Z,36.97
2022-09-04T16:32:34.259Z,36.92
2022-09-04T16:35:21.539Z,36.88
2022-09-04T16:38:02.045Z,36.96
2022-09-04T16:40:48.605Z,36.94
2022-09-04T16:43:23.439Z,37.14
2022-09-04T16:46:07.057Z,37.41
2022-09-04T16:48:59.207Z,37.48
2022-09-04T16:51:39.858Z,37.54
2022-09-04T16:54:24.753Z,37.56
2022-09-04T16:57:13.237Z,38.38
2022-09-04T16:59:42.629Z,38.75
2022-09-04T17:02:37.668Z,38.23
2022-09-04T17:05:23.171Z,38.70
2022-09-04T17:08:05.767Z,38.84
2022-09-04T17:10:54.671Z,38.83
2022-09-04T17:14:13.695Z,38.58
2022-09-04T17:17:29.821Z,38.65
2022-09-04T17:20:04.249Z,38.94
2022-09-04T17:22:50.215Z,38.94
2022-09-04T17:29:19.623Z,38.98
2022-09-04T17:31:58.630Z,39.21
2022-09-04T17:40:47.148Z,39.18
2022-09-04T17:40:51.459Z,40.22
2022-09-04T17:41:38.244Z,40.04
2022-09-04T17:44:02.369Z,41.45
2022-09-04T17:46:37.267Z,41.64
2022-09-04T17:49:20.447Z,42.24
2022-09-04T17:51:57.604Z,40.76
2022-09-04T17:54:28.947Z,41.88
2022-09-04T17:57:04.413Z,42.71
2022-09-04T17:59:47.720Z,40.77
2022-09-04T18:02:33.479Z,42.40
2022-09-04T18:05:19.963Z,42.37
2022-09-04T18:08:09.357Z,42.58
2022-09-04T18:10:57.703Z,43.31
2022-09-04T18:13:37.840Z,43.10
2022-09-04T18:17:11.118Z,43.55
2022-09-04T18:19:47.941Z,43.17
2022-09-04T18:22:33.394Z,43.72
2022-09-04T18:25:19.805Z,43.91
2022-09-04T18:28:15.374Z,44.07
2022-09-04T18:37:09.935Z,44.49
2022-09-04T18:37:23.201Z,44.49
2022-09-04T18:37:44.104Z,44.88
2022-09-04T18:40:08.835Z,44.88
2022-09-04T18:50:30.250Z,44.57
2022-09-04T18:50:42.919Z,45.82
2022-09-04T18:50:49.496Z,45.51
2022-09-04T18:51:30.543Z,46.04
2022-09-04T18:54:19.691Z,45.57
2022-09-04T18:56:53.051Z,45.87
2022-09-04T18:59:26.437Z,46.34
2022-09-04T19:02:18.296Z,46.66
2022-09-04T19:04:51.869Z,46.42
2022-09-04T19:07:50.446Z,46.77
2022-09-04T19:10:23.844Z,46.83
2022-09-04T19:12:50.994Z,47.57
2022-09-04T19:15:36.153Z,47.58
2022-09-04T19:18:17.283Z,47.75
2022-09-04T19:20:52.884Z,47.87
2022-09-04T19:23:29.796Z,48.41
2022-09-04T19:26:00.819Z,48.43
2022-09-04T19:28:43.883Z,48.78
2022-09-04T19:31:30.061Z,48.69
2022-09-04T19:34:38.635Z,48.66
2022-09-04T19:37:44.786Z,49.10
2022-09-04T19:46:03.557Z,49.17
2022-09-04T19:46:18.486Z,49.65
2022-09-04T19:46:50.933Z,49.32
2022-09-04T19:50:03.531Z,50.28
2022-09-04T19:53:33.023Z,50.23
2022-09-04T19:55:23.564Z,50.41
2022-09-04T19:58:06.367Z,50.19
2022-09-04T20:00:43.452Z,50.22
2022-09-04T20:03:29.316Z,50.44
2022-09-04T20:06:21.499Z,50.26
2022-09-04T20:09:08.346Z,50.28
2022-09-04T20:11:43.367Z,49.77
2022-09-04T20:14:19.693Z,50.28
2022-09-04T20:16:52.654Z,50.23
2022-09-04T20:19:37.577Z,50.39
2022-09-04T20:22:25.536Z,50.21
2022-09-04T20:25:08.483Z,50.13
2022-09-04T20:27:43.565Z,50.12
2022-09-04T20:30:25.167Z,50.12
2022-09-04T20:33:12.391Z,50.17
2022-09-04T20:35:55.369Z,50.22
2022-09-04T20:38:30.675Z,50.21
2022-09-04T20:41:08.319Z,50.14
2022-09-04T20:43:54.367Z,49.85
2022-09-04T20:52:41.756Z,49.80
2022-09-04T20:52:53.857Z,49.70
2022-09-04T20:53:07.771Z,49.94
2022-09-04T20:55:31.534Z,49.82
2022-09-04T21:01:51.188Z,49.91
2022-09-04T21:03:21.230Z,49.53
2022-09-04T21:04:42.159Z,49.48
2022-09-04T21:07:17.941Z,49.67
2022-09-04T21:10:10.007Z,49.34
2022-09-04T21:12:48.544Z,49.55
2022-09-04T21:15:38.525Z,50.14
2022-09-04T21:18:18.056Z,49.40
2022-09-04T21:20:59.903Z,49.29
2022-09-04T21:23:53.032Z,49.39
2022-09-04T21:26:40.827Z,49.15
2022-09-04T21:29:21.720Z,48.98
2022-09-04T21:32:00.231Z,49.16
2022-09-04T21:34:51.936Z,48.99
2022-09-04T21:37:31.472Z,48.75
2022-09-04T21:40:50.319Z,48.88
2022-09-04T21:43:35.708Z,48.76
2022-09-04T21:46:13.234Z,48.78
2022-09-04T21:49:02.696Z,48.96
2022-09-04T21:52:03.855Z,48.93
2022-09-04T21:54:38.247Z,49.16
2022-09-04T22:02:29.530Z,49.32
2022-09-04T22:02:35.290Z,49.11
2022-09-04T22:03:29.438Z,49.02
2022-09-04T22:11:24.772Z,49.45
2022-09-04T22:13:41.887Z,49.63
2022-09-04T22:13:48.427Z,48.93
2022-09-04T22:16:44.339Z,48.14
2022-09-04T22:19:34.905Z,47.64
2022-09-04T22:22:14.191Z,46.95
2022-09-04T22:25:24.075Z,46.92
2022-09-04T22:28:18.620Z,46.73
2022-09-04T22:31:31.470Z,45.94
2022-09-04T22:34:17.414Z,46.43
2022-09-04T22:37:00.967Z,45.89
2022-09-04T22:40:07.823Z,45.85
2022-09-04T22:42:43.627Z,45.75
2022-09-04T22:45:22.837Z,45.65
2022-09-04T22:48:03.299Z,45.54
2022-09-04T22:50:49.399Z,45.00
2022-09-04T22:53:31.362Z,44.93
2022-09-04T22:56:22.870Z,45.18
2022-09-04T22:59:10.522Z,44.74
2022-09-04T23:02:14.316Z,45.14
2022-09-04T23:05:12.420Z,44.94
2022-09-04T23:13:44.484Z,45.35
2022-09-04T23:13:57.109Z,45.37
2022-09-04T23:14:06.851Z,45.29
2022-09-04T23:16:53.646Z,45.23
2022-09-04T23:24:47.887Z,45.04
2022-09-04T23:26:43.054Z,44.95
2022-09-04T23:26:49.026Z,45.47
2022-09-04T23:29:09.653Z,44.49
2022-09-04T23:31:46.640Z,44.30
2022-09-04T23:34:30.028Z,44.01
2022-09-04T23:37:21.678Z,43.40
2022-09-04T23:40:16.657Z,43.43
2022-09-04T23:43:07.748Z,43.19
2022-09-04T23:46:01.981Z,42.68
2022-09-04T23:49:06.820Z,42.68
2022-09-04T23:51:57.930Z,43.02
2022-09-04T23:54:37.274Z,43.08
2022-09-04T23:57:26.728Z,43.34
